sensor_id;sensor_type;location;lat;lon;timestamp;temperature;humidity
40023;DHT22;25713;-35.352;149.036;2023-02-15T00:01:56;19.90;86.90
40023;DHT22;25713;-35.352;149.036;2023-02-15T00:04:26;19.90;87.80
40023;DHT22;25713;-35.352;149.036;2023-02-15T00:06:55;19.90;88.70
40023;DHT22;25713;-35.352;149.036;2023-02-15T00:09:24;19.90;86.40
40023;DHT22;25713;-35.352;149.036;2023-02-15T00:11:56;19.90;87.40
40023;DHT22;25713;-35.352;149.036;2023-02-15T00:14:26;19.90;88.60
40023;DHT22;25713;-35.352;149.036;2023-02-15T00:16:55;19.90;88.90
40023;DHT22;25713;-35.352;149.036;2023-02-15T00:19:24;20.00;88.70
40023;DHT22;25713;-35.352;149.036;2023-02-15T00:21:54;20.10;87.80
40023;DHT22;25713;-35.352;149.036;2023-02-15T00:24:24;20.10;87.80
40023;DHT22;25713;-35.352;149.036;2023-02-15T00:26:53;20.10;87.90
40023;DHT22;25713;-35.352;149.036;2023-02-15T00:29:24;20.20;86.10
40023;DHT22;25713;-35.352;149.036;2023-02-15T00:31:54;20.20;86.70
40023;DHT22;25713;-35.352;149.036;2023-02-15T00:34:27;20.20;87.40
40023;DHT22;25713;-35.352;149.036;2023-02-15T00:36:59;20.20;88.20
40023;DHT22;25713;-35.352;149.036;2023-02-15T00:39:28;20.20;86.60
40023;DHT22;25713;-35.352;149.036;2023-02-15T00:41:58;20.30;87.70
40023;DHT22;25713;-35.352;149.036;2023-02-15T00:44:29;20.30;86.40
40023;DHT22;25713;-35.352;149.036;2023-02-15T00:46:58;20.30;86.90
40023;DHT22;25713;-35.352;149.036;2023-02-15T00:49:28;20.30;86.60
40023;DHT22;25713;-35.352;149.036;2023-02-15T00:51:57;20.40;86.10
40023;DHT22;25713;-35.352;149.036;2023-02-15T00:54:27;20.40;85.10
40023;DHT22;25713;-35.352;149.036;2023-02-15T00:56:56;20.40;86.50
40023;DHT22;25713;-35.352;149.036;2023-02-15T00:59:28;20.40;85.70
40023;DHT22;25713;-35.352;149.036;2023-02-15T01:01:57;20.50;86.60
40023;DHT22;25713;-35.352;149.036;2023-02-15T01:04:27;20.50;83.40
40023;DHT22;25713;-35.352;149.036;2023-02-15T01:06:56;20.60;86.40
40023;DHT22;25713;-35.352;149.036;2023-02-15T01:09:26;20.60;85.70
40023;DHT22;25713;-35.352;149.036;2023-02-15T01:11:55;20.60;85.40
40023;DHT22;25713;-35.352;149.036;2023-02-15T01:14:25;20.60;85.10
40023;DHT22;25713;-35.352;149.036;2023-02-15T01:16:59;20.70;85.50
40023;DHT22;25713;-35.352;149.036;2023-02-15T01:19:28;20.60;85.80
40023;DHT22;25713;-35.352;149.036;2023-02-15T01:21:57;20.60;86.50
40023;DHT22;25713;-35.352;149.036;2023-02-15T01:24:27;20.60;85.70
40023;DHT22;25713;-35.352;149.036;2023-02-15T01:26:56;20.60;86.10
40023;DHT22;25713;-35.352;149.036;2023-02-15T01:29:29;20.70;84.90
40023;DHT22;25713;-35.352;149.036;2023-02-15T01:32:00;20.70;84.00
40023;DHT22;25713;-35.352;149.036;2023-02-15T01:34:30;20.70;85.50
40023;DHT22;25713;-35.352;149.036;2023-02-15T01:37:00;20.70;85.10
40023;DHT22;25713;-35.352;149.036;2023-02-15T01:39:29;20.70;85.00
40023;DHT22;25713;-35.352;149.036;2023-02-15T01:41:59;20.80;82.80
40023;DHT22;25713;-35.352;149.036;2023-02-15T01:44:46;20.80;83.80
40023;DHT22;25713;-35.352;149.036;2023-02-15T01:47:21;20.80;83.40
40023;DHT22;25713;-35.352;149.036;2023-02-15T01:49:59;20.80;84.50
40023;DHT22;25713;-35.352;149.036;2023-02-15T01:52:30;20.90;82.60
40023;DHT22;25713;-35.352;149.036;2023-02-15T01:55:00;20.90;84.10
40023;DHT22;25713;-35.352;149.036;2023-02-15T01:57:32;21.00;81.40
40023;DHT22;25713;-35.352;149.036;2023-02-15T02:00:03;21.00;82.90
40023;DHT22;25713;-35.352;149.036;2023-02-15T02:02:44;20.90;85.00
40023;DHT22;25713;-35.352;149.036;2023-02-15T02:05:17;21.00;83.80
40023;DHT22;25713;-35.352;149.036;2023-02-15T02:07:48;21.00;82.40
40023;DHT22;25713;-35.352;149.036;2023-02-15T02:10:22;21.10;82.90
40023;DHT22;25713;-35.352;149.036;2023-02-15T02:12:54;21.10;82.00
40023;DHT22;25713;-35.352;149.036;2023-02-15T02:15:32;21.20;81.30
40023;DHT22;25713;-35.352;149.036;2023-02-15T02:18:13;21.40;79.40
40023;DHT22;25713;-35.352;149.036;2023-02-15T02:27:29;21.40;81.80
40023;DHT22;25713;-35.352;149.036;2023-02-15T02:33:40;21.40;80.30
40023;DHT22;25713;-35.352;149.036;2023-02-15T02:36:17;21.40;82.10
40023;DHT22;25713;-35.352;149.036;2023-02-15T02:39:06;21.50;80.80
40023;DHT22;25713;-35.352;149.036;2023-02-15T02:41:43;21.60;80.00
40023;DHT22;25713;-35.352;149.036;2023-02-15T02:44:17;21.60;82.00
40023;DHT22;25713;-35.352;149.036;2023-02-15T02:46:52;21.60;81.60
40023;DHT22;25713;-35.352;149.036;2023-02-15T02:49:35;21.70;81.20
40023;DHT22;25713;-35.352;149.036;2023-02-15T02:52:07;21.70;79.20
40023;DHT22;25713;-35.352;149.036;2023-02-15T02:54:37;21.80;78.70
40023;DHT22;25713;-35.352;149.036;2023-02-15T02:57:08;22.00;78.20
40023;DHT22;25713;-35.352;149.036;2023-02-15T02:59:42;22.00;79.00
40023;DHT22;25713;-35.352;149.036;2023-02-15T03:02:18;22.10;77.80
40023;DHT22;25713;-35.352;149.036;2023-02-15T03:04:55;22.00;81.50
40023;DHT22;25713;-35.352;149.036;2023-02-15T03:07:27;21.90;79.80
40023;DHT22;25713;-35.352;149.036;2023-02-15T03:10:00;22.10;76.70
40023;DHT22;25713;-35.352;149.036;2023-02-15T03:12:32;22.00;79.40
40023;DHT22;25713;-35.352;149.036;2023-02-15T03:15:03;22.10;78.80
40023;DHT22;25713;-35.352;149.036;2023-02-15T03:17:35;22.20;76.80
40023;DHT22;25713;-35.352;149.036;2023-02-15T03:20:09;22.10;78.10
40023;DHT22;25713;-35.352;149.036;2023-02-15T03:22:42;22.10;79.60
40023;DHT22;25713;-35.352;149.036;2023-02-15T03:25:17;22.10;80.20
40023;DHT22;25713;-35.352;149.036;2023-02-15T03:27:49;22.10;78.50
40023;DHT22;25713;-35.352;149.036;2023-02-15T03:30:21;22.20;77.30
40023;DHT22;25713;-35.352;149.036;2023-02-15T03:32:52;22.20;78.50
40023;DHT22;25713;-35.352;149.036;2023-02-15T03:35:26;22.20;78.70
40023;DHT22;25713;-35.352;149.036;2023-02-15T03:38:00;22.20;77.10
40023;DHT22;25713;-35.352;149.036;2023-02-15T03:40:29;22.20;78.70
40023;DHT22;25713;-35.352;149.036;2023-02-15T03:43:03;22.20;78.30
40023;DHT22;25713;-35.352;149.036;2023-02-15T03:45:37;22.20;77.60
40023;DHT22;25713;-35.352;149.036;2023-02-15T03:48:08;22.20;77.70
40023;DHT22;25713;-35.352;149.036;2023-02-15T03:50:39;22.30;79.20
40023;DHT22;25713;-35.352;149.036;2023-02-15T03:53:14;22.30;79.40
40023;DHT22;25713;-35.352;149.036;2023-02-15T03:55:47;22.20;80.70
40023;DHT22;25713;-35.352;149.036;2023-02-15T03:58:16;22.20;79.30
40023;DHT22;25713;-35.352;149.036;2023-02-15T04:00:51;22.40;76.80
40023;DHT22;25713;-35.352;149.036;2023-02-15T04:03:28;22.40;79.30
40023;DHT22;25713;-35.352;149.036;2023-02-15T04:06:03;22.40;78.90
40023;DHT22;25713;-35.352;149.036;2023-02-15T04:08:33;22.40;78.70
40023;DHT22;25713;-35.352;149.036;2023-02-15T04:11:02;22.60;78.20
40023;DHT22;25713;-35.352;149.036;2023-02-15T04:13:32;22.60;75.60
40023;DHT22;25713;-35.352;149.036;2023-02-15T04:16:01;22.70;76.80
40023;DHT22;25713;-35.352;149.036;2023-02-15T04:18:31;22.70;75.80
40023;DHT22;25713;-35.352;149.036;2023-02-15T04:21:03;22.90;72.30
40023;DHT22;25713;-35.352;149.036;2023-02-15T04:23:33;22.70;76.50
40023;DHT22;25713;-35.352;149.036;2023-02-15T04:26:05;22.60;76.50
40023;DHT22;25713;-35.352;149.036;2023-02-15T04:28:34;22.60;78.00
40023;DHT22;25713;-35.352;149.036;2023-02-15T04:31:03;22.60;77.50
40023;DHT22;25713;-35.352;149.036;2023-02-15T04:33:33;22.60;77.30
40023;DHT22;25713;-35.352;149.036;2023-02-15T04:36:04;22.50;79.10
40023;DHT22;25713;-35.352;149.036;2023-02-15T04:38:33;22.40;79.10
40023;DHT22;25713;-35.352;149.036;2023-02-15T04:41:02;22.40;79.30
40023;DHT22;25713;-35.352;149.036;2023-02-15T04:43:32;22.50;76.50
40023;DHT22;25713;-35.352;149.036;2023-02-15T04:46:01;22.70;75.80
40023;DHT22;25713;-35.352;149.036;2023-02-15T04:48:31;22.70;75.10
40023;DHT22;25713;-35.352;149.036;2023-02-15T04:51:04;22.80;74.00
40023;DHT22;25713;-35.352;149.036;2023-02-15T04:53:36;23.10;73.50
40023;DHT22;25713;-35.352;149.036;2023-02-15T04:56:05;23.10;74.90
40023;DHT22;25713;-35.352;149.036;2023-02-15T04:58:35;22.90;78.80
40023;DHT22;25713;-35.352;149.036;2023-02-15T05:01:05;22.80;78.00
40023;DHT22;25713;-35.352;149.036;2023-02-15T05:03:34;22.80;77.20
40023;DHT22;25713;-35.352;149.036;2023-02-15T05:06:04;22.70;77.70
40023;DHT22;25713;-35.352;149.036;2023-02-15T05:08:36;22.70;78.00
40023;DHT22;25713;-35.352;149.036;2023-02-15T05:11:05;22.80;76.90
40023;DHT22;25713;-35.352;149.036;2023-02-15T05:13:35;22.80;77.60
40023;DHT22;25713;-35.352;149.036;2023-02-15T05:16:04;22.90;75.60
40023;DHT22;25713;-35.352;149.036;2023-02-15T05:18:34;22.80;78.00
40023;DHT22;25713;-35.352;149.036;2023-02-15T05:21:03;22.80;78.80
40023;DHT22;25713;-35.352;149.036;2023-02-15T05:23:35;22.80;77.70
40023;DHT22;25713;-35.352;149.036;2023-02-15T05:26:04;22.70;78.10
40023;DHT22;25713;-35.352;149.036;2023-02-15T05:28:34;22.80;77.90
40023;DHT22;25713;-35.352;149.036;2023-02-15T05:31:05;22.80;76.60
40023;DHT22;25713;-35.352;149.036;2023-02-15T05:33:35;22.80;77.20
40023;DHT22;25713;-35.352;149.036;2023-02-15T05:36:05;22.90;74.40
40023;DHT22;25713;-35.352;149.036;2023-02-15T05:38:37;22.90;75.30
40023;DHT22;25713;-35.352;149.036;2023-02-15T05:41:08;22.90;75.00
40023;DHT22;25713;-35.352;149.036;2023-02-15T05:43:38;22.90;76.40
40023;DHT22;25713;-35.352;149.036;2023-02-15T05:46:07;23.00;74.30
40023;DHT22;25713;-35.352;149.036;2023-02-15T05:48:37;23.00;75.30
40023;DHT22;25713;-35.352;149.036;2023-02-15T05:51:07;23.10;72.60
40023;DHT22;25713;-35.352;149.036;2023-02-15T05:53:39;23.20;70.30
40023;DHT22;25713;-35.352;149.036;2023-02-15T05:56:09;23.20;73.70
40023;DHT22;25713;-35.352;149.036;2023-02-15T05:58:40;23.20;73.60
40023;DHT22;25713;-35.352;149.036;2023-02-15T06:01:10;23.10;75.30
40023;DHT22;25713;-35.352;149.036;2023-02-15T06:03:40;23.10;74.10
40023;DHT22;25713;-35.352;149.036;2023-02-15T06:06:10;23.00;74.70
40023;DHT22;25713;-35.352;149.036;2023-02-15T06:08:41;22.90;75.70
40023;DHT22;25713;-35.352;149.036;2023-02-15T06:11:11;22.90;76.00
40023;DHT22;25713;-35.352;149.036;2023-02-15T06:13:40;22.90;75.50
40023;DHT22;25713;-35.352;149.036;2023-02-15T06:16:10;22.90;74.10
40023;DHT22;25713;-35.352;149.036;2023-02-15T06:18:39;22.90;76.20
40023;DHT22;25713;-35.352;149.036;2023-02-15T06:21:09;23.00;74.20
40023;DHT22;25713;-35.352;149.036;2023-02-15T06:23:40;22.90;75.40
40023;DHT22;25713;-35.352;149.036;2023-02-15T06:26:09;22.90;75.40
40023;DHT22;25713;-35.352;149.036;2023-02-15T06:28:38;22.90;75.60
40023;DHT22;25713;-35.352;149.036;2023-02-15T06:31:08;22.90;76.20
40023;DHT22;25713;-35.352;149.036;2023-02-15T06:33:37;22.80;76.90
40023;DHT22;25713;-35.352;149.036;2023-02-15T06:36:07;22.80;77.30
40023;DHT22;25713;-35.352;149.036;2023-02-15T06:38:37;22.80;76.40
40023;DHT22;25713;-35.352;149.036;2023-02-15T06:41:08;22.70;76.50
40023;DHT22;25713;-35.352;149.036;2023-02-15T06:43:38;22.80;73.80
40023;DHT22;25713;-35.352;149.036;2023-02-15T06:46:07;22.80;76.00
40023;DHT22;25713;-35.352;149.036;2023-02-15T06:48:36;22.80;76.70
40023;DHT22;25713;-35.352;149.036;2023-02-15T06:51:06;22.80;74.90
40023;DHT22;25713;-35.352;149.036;2023-02-15T06:53:35;22.80;75.00
40023;DHT22;25713;-35.352;149.036;2023-02-15T06:56:07;22.80;73.70
40023;DHT22;25713;-35.352;149.036;2023-02-15T06:58:37;22.80;72.50
40023;DHT22;25713;-35.352;149.036;2023-02-15T07:01:07;22.80;71.50
40023;DHT22;25713;-35.352;149.036;2023-02-15T07:03:37;22.90;73.50
40023;DHT22;25713;-35.352;149.036;2023-02-15T07:06:06;22.80;74.10
40023;DHT22;25713;-35.352;149.036;2023-02-15T07:08:37;22.80;71.50
40023;DHT22;25713;-35.352;149.036;2023-02-15T07:11:09;22.90;71.00
40023;DHT22;25713;-35.352;149.036;2023-02-15T07:13:38;23.00;70.50
40023;DHT22;25713;-35.352;149.036;2023-02-15T07:16:07;22.90;74.70
40023;DHT22;25713;-35.352;149.036;2023-02-15T07:18:37;22.80;74.70
40023;DHT22;25713;-35.352;149.036;2023-02-15T07:21:07;22.90;72.40
40023;DHT22;25713;-35.352;149.036;2023-02-15T07:23:37;22.90;70.80
40023;DHT22;25713;-35.352;149.036;2023-02-15T07:26:09;23.00;71.70
40023;DHT22;25713;-35.352;149.036;2023-02-15T07:28:39;22.90;73.20
40023;DHT22;25713;-35.352;149.036;2023-02-15T07:31:11;22.80;75.90
40023;DHT22;25713;-35.352;149.036;2023-02-15T07:33:40;22.80;74.00
40023;DHT22;25713;-35.352;149.036;2023-02-15T07:36:10;22.80;75.00
40023;DHT22;25713;-35.352;149.036;2023-02-15T07:38:40;22.70;74.70
40023;DHT22;25713;-35.352;149.036;2023-02-15T07:41:13;22.70;76.40
40023;DHT22;25713;-35.352;149.036;2023-02-15T07:43:44;22.60;76.40
40023;DHT22;25713;-35.352;149.036;2023-02-15T07:46:15;22.60;76.50
40023;DHT22;25713;-35.352;149.036;2023-02-15T07:48:46;22.70;72.00
40023;DHT22;25713;-35.352;149.036;2023-02-15T07:51:15;22.80;72.10
40023;DHT22;25713;-35.352;149.036;2023-02-15T07:53:45;22.80;72.70
40023;DHT22;25713;-35.352;149.036;2023-02-15T07:56:17;22.80;74.30
40023;DHT22;25713;-35.352;149.036;2023-02-15T07:58:46;22.70;74.00
40023;DHT22;25713;-35.352;149.036;2023-02-15T08:01:16;22.70;72.40
40023;DHT22;25713;-35.352;149.036;2023-02-15T08:03:45;22.70;71.20
40023;DHT22;25713;-35.352;149.036;2023-02-15T08:06:15;22.80;73.00
40023;DHT22;25713;-35.352;149.036;2023-02-15T08:08:48;22.70;75.60
40023;DHT22;25713;-35.352;149.036;2023-02-15T08:11:20;22.70;74.50
40023;DHT22;25713;-35.352;149.036;2023-02-15T08:13:51;22.70;72.10
40023;DHT22;25713;-35.352;149.036;2023-02-15T08:16:24;22.70;71.30
40023;DHT22;25713;-35.352;149.036;2023-02-15T08:18:54;22.70;69.60
40023;DHT22;25713;-35.352;149.036;2023-02-15T08:21:24;22.80;68.90
40023;DHT22;25713;-35.352;149.036;2023-02-15T08:23:54;22.80;69.50
40023;DHT22;25713;-35.352;149.036;2023-02-15T08:26:26;22.90;67.70
40023;DHT22;25713;-35.352;149.036;2023-02-15T08:28:54;22.90;71.00
40023;DHT22;25713;-35.352;149.036;2023-02-15T08:31:24;22.80;69.10
40023;DHT22;25713;-35.352;149.036;2023-02-15T08:33:54;22.80;70.80
40023;DHT22;25713;-35.352;149.036;2023-02-15T08:36:24;22.80;70.60
40023;DHT22;25713;-35.352;149.036;2023-02-15T08:38:54;22.70;72.80
40023;DHT22;25713;-35.352;149.036;2023-02-15T08:41:26;22.70;72.20
40023;DHT22;25713;-35.352;149.036;2023-02-15T08:43:56;22.70;72.30
40023;DHT22;25713;-35.352;149.036;2023-02-15T08:46:27;22.70;71.50
40023;DHT22;25713;-35.352;149.036;2023-02-15T08:48:57;22.70;70.60
40023;DHT22;25713;-35.352;149.036;2023-02-15T08:51:28;22.70;71.80
40023;DHT22;25713;-35.352;149.036;2023-02-15T08:54:00;22.70;71.00
40023;DHT22;25713;-35.352;149.036;2023-02-15T08:56:34;22.70;71.10
40023;DHT22;25713;-35.352;149.036;2023-02-15T08:59:04;22.70;71.00
40023;DHT22;25713;-35.352;149.036;2023-02-15T09:01:34;22.70;71.30
40023;DHT22;25713;-35.352;149.036;2023-02-15T09:04:05;22.60;70.70
40023;DHT22;25713;-35.352;149.036;2023-02-15T09:06:36;22.60;71.10
40023;DHT22;25713;-35.352;149.036;2023-02-15T09:09:06;22.60;71.20
40023;DHT22;25713;-35.352;149.036;2023-02-15T09:11:39;22.50;71.30
40023;DHT22;25713;-35.352;149.036;2023-02-15T09:14:10;22.50;71.70
40023;DHT22;25713;-35.352;149.036;2023-02-15T09:16:41;22.50;72.10
40023;DHT22;25713;-35.352;149.036;2023-02-15T09:19:11;22.40;73.60
40023;DHT22;25713;-35.352;149.036;2023-02-15T09:21:40;22.40;79.30
40023;DHT22;25713;-35.352;149.036;2023-02-15T09:24:11;22.40;76.10
40023;DHT22;25713;-35.352;149.036;2023-02-15T09:26:44;22.50;77.50
40023;DHT22;25713;-35.352;149.036;2023-02-15T09:29:15;22.50;78.60
40023;DHT22;25713;-35.352;149.036;2023-02-15T09:31:45;22.50;80.10
40023;DHT22;25713;-35.352;149.036;2023-02-15T09:34:16;22.50;81.20
40023;DHT22;25713;-35.352;149.036;2023-02-15T09:36:46;22.50;81.70
40023;DHT22;25713;-35.352;149.036;2023-02-15T09:39:17;22.50;82.10
40023;DHT22;25713;-35.352;149.036;2023-02-15T09:42:20;22.40;82.40
40023;DHT22;25713;-35.352;149.036;2023-02-15T09:48:02;22.40;83.30
40023;DHT22;25713;-35.352;149.036;2023-02-15T09:50:39;22.40;83.90
40023;DHT22;25713;-35.352;149.036;2023-02-15T09:56:19;22.30;84.40
40023;DHT22;25713;-35.352;149.036;2023-02-15T09:58:59;22.30;84.80
40023;DHT22;25713;-35.352;149.036;2023-02-15T10:01:41;22.30;85.10
40023;DHT22;25713;-35.352;149.036;2023-02-15T10:04:24;22.30;85.00
40023;DHT22;25713;-35.352;149.036;2023-02-15T10:07:08;22.30;85.20
40023;DHT22;25713;-35.352;149.036;2023-02-15T10:09:48;22.20;85.20
40023;DHT22;25713;-35.352;149.036;2023-02-15T10:12:31;22.20;85.20
40023;DHT22;25713;-35.352;149.036;2023-02-15T10:15:19;22.20;85.40
40023;DHT22;25713;-35.352;149.036;2023-02-15T10:18:01;22.20;85.50
40023;DHT22;25713;-35.352;149.036;2023-02-15T10:20:36;22.20;85.70
40023;DHT22;25713;-35.352;149.036;2023-02-15T10:23:25;22.10;85.90
40023;DHT22;25713;-35.352;149.036;2023-02-15T10:26:03;22.10;85.90
40023;DHT22;25713;-35.352;149.036;2023-02-15T10:28:42;22.10;86.20
40023;DHT22;25713;-35.352;149.036;2023-02-15T10:31:24;22.10;86.40
40023;DHT22;25713;-35.352;149.036;2023-02-15T10:34:14;22.10;86.30
40023;DHT22;25713;-35.352;149.036;2023-02-15T10:37:00;22.00;86.40
40023;DHT22;25713;-35.352;149.036;2023-02-15T10:39:41;22.00;86.50
40023;DHT22;25713;-35.352;149.036;2023-02-15T10:42:20;22.00;86.80
40023;DHT22;25713;-35.352;149.036;2023-02-15T10:45:06;22.00;86.80
40023;DHT22;25713;-35.352;149.036;2023-02-15T10:48:00;22.00;87.10
40023;DHT22;25713;-35.352;149.036;2023-02-15T10:50:45;22.00;87.30
40023;DHT22;25713;-35.352;149.036;2023-02-15T10:53:35;22.00;87.40
40023;DHT22;25713;-35.352;149.036;2023-02-15T10:56:14;22.00;87.70
40023;DHT22;25713;-35.352;149.036;2023-02-15T11:01:53;21.90;88.00
40023;DHT22;25713;-35.352;149.036;2023-02-15T11:04:44;21.90;88.00
40023;DHT22;25713;-35.352;149.036;2023-02-15T11:07:17;21.90;88.00
40023;DHT22;25713;-35.352;149.036;2023-02-15T11:09:50;21.80;88.00
40023;DHT22;25713;-35.352;149.036;2023-02-15T11:12:23;21.80;88.00
40023;DHT22;25713;-35.352;149.036;2023-02-15T11:14:57;21.80;88.30
40023;DHT22;25713;-35.352;149.036;2023-02-15T11:17:30;21.80;88.20
40023;DHT22;25713;-35.352;149.036;2023-02-15T11:20:16;21.80;88.50
40023;DHT22;25713;-35.352;149.036;2023-02-15T11:22:49;21.80;88.50
40023;DHT22;25713;-35.352;149.036;2023-02-15T11:25:25;21.80;88.70
40023;DHT22;25713;-35.352;149.036;2023-02-15T11:27:55;21.80;88.80
40023;DHT22;25713;-35.352;149.036;2023-02-15T11:30:29;21.80;88.50
40023;DHT22;25713;-35.352;149.036;2023-02-15T11:33:12;21.80;88.50
40023;DHT22;25713;-35.352;149.036;2023-02-15T11:35:51;21.80;88.80
40023;DHT22;25713;-35.352;149.036;2023-02-15T11:38:24;21.80;89.00
40023;DHT22;25713;-35.352;149.036;2023-02-15T11:40:55;21.70;88.50
40023;DHT22;25713;-35.352;149.036;2023-02-15T11:43:31;21.80;88.90
40023;DHT22;25713;-35.352;149.036;2023-02-15T11:46:03;21.80;89.00
40023;DHT22;25713;-35.352;149.036;2023-02-15T11:48:33;21.70;88.80
40023;DHT22;25713;-35.352;149.036;2023-02-15T11:51:08;21.70;88.20
40023;DHT22;25713;-35.352;149.036;2023-02-15T11:53:40;21.70;88.80
40023;DHT22;25713;-35.352;149.036;2023-02-15T11:56:15;21.70;89.20
40023;DHT22;25713;-35.352;149.036;2023-02-15T11:58:47;21.70;89.30
40023;DHT22;25713;-35.352;149.036;2023-02-15T12:01:23;21.70;88.80
40023;DHT22;25713;-35.352;149.036;2023-02-15T12:03:55;21.70;88.80
40023;DHT22;25713;-35.352;149.036;2023-02-15T12:06:34;21.70;89.00
40023;DHT22;25713;-35.352;149.036;2023-02-15T12:09:07;21.70;88.20
40023;DHT22;25713;-35.352;149.036;2023-02-15T12:11:42;21.70;89.10
40023;DHT22;25713;-35.352;149.036;2023-02-15T12:14:13;21.60;88.40
40023;DHT22;25713;-35.352;149.036;2023-02-15T12:16:44;21.60;88.70
40023;DHT22;25713;-35.352;149.036;2023-02-15T12:19:28;21.60;88.50
40023;DHT22;25713;-35.352;149.036;2023-02-15T12:22:03;21.60;88.60
40023;DHT22;25713;-35.352;149.036;2023-02-15T12:24:36;21.60;87.40
40023;DHT22;25713;-35.352;149.036;2023-02-15T12:27:12;21.60;88.80
40023;DHT22;25713;-35.352;149.036;2023-02-15T12:29:45;21.60;89.00
40023;DHT22;25713;-35.352;149.036;2023-02-15T12:32:19;21.60;89.10
40023;DHT22;25713;-35.352;149.036;2023-02-15T12:34:52;21.60;89.00
40023;DHT22;25713;-35.352;149.036;2023-02-15T12:37:29;21.60;87.30
40023;DHT22;25713;-35.352;149.036;2023-02-15T12:40:00;21.60;87.40
40023;DHT22;25713;-35.352;149.036;2023-02-15T12:42:43;21.50;88.60
40023;DHT22;25713;-35.352;149.036;2023-02-15T12:45:24;21.50;88.70
40023;DHT22;25713;-35.352;149.036;2023-02-15T12:48:15;21.50;89.00
40023;DHT22;25713;-35.352;149.036;2023-02-15T12:50:45;21.50;89.10
40023;DHT22;25713;-35.352;149.036;2023-02-15T12:53:20;21.50;89.20
40023;DHT22;25713;-35.352;149.036;2023-02-15T12:55:54;21.50;89.10
40023;DHT22;25713;-35.352;149.036;2023-02-15T12:58:25;21.50;89.20
40023;DHT22;25713;-35.352;149.036;2023-02-15T13:01:12;21.50;89.20
40023;DHT22;25713;-35.352;149.036;2023-02-15T13:03:56;21.50;89.10
40023;DHT22;25713;-35.352;149.036;2023-02-15T13:06:27;21.50;89.40
40023;DHT22;25713;-35.352;149.036;2023-02-15T13:09:11;21.50;89.50
40023;DHT22;25713;-35.352;149.036;2023-02-15T13:11:45;21.50;89.50
40023;DHT22;25713;-35.352;149.036;2023-02-15T13:14:19;21.40;89.50
40023;DHT22;25713;-35.352;149.036;2023-02-15T13:16:52;21.50;89.60
40023;DHT22;25713;-35.352;149.036;2023-02-15T13:19:31;21.50;89.60
40023;DHT22;25713;-35.352;149.036;2023-02-15T13:22:05;21.50;89.60
40023;DHT22;25713;-35.352;149.036;2023-02-15T13:24:41;21.50;89.60
40023;DHT22;25713;-35.352;149.036;2023-02-15T13:27:15;21.40;89.50
40023;DHT22;25713;-35.352;149.036;2023-02-15T13:29:49;21.40;89.70
40023;DHT22;25713;-35.352;149.036;2023-02-15T13:32:26;21.40;89.70
40023;DHT22;25713;-35.352;149.036;2023-02-15T13:34:57;21.40;88.90
40023;DHT22;25713;-35.352;149.036;2023-02-15T13:40:32;21.40;89.80
40023;DHT22;25713;-35.352;149.036;2023-02-15T13:43:11;21.40;89.80
40023;DHT22;25713;-35.352;149.036;2023-02-15T13:45:54;21.40;89.70
40023;DHT22;25713;-35.352;149.036;2023-02-15T13:48:31;21.40;89.70
40023;DHT22;25713;-35.352;149.036;2023-02-15T13:51:09;21.40;89.70
40023;DHT22;25713;-35.352;149.036;2023-02-15T13:54:05;21.40;89.80
40023;DHT22;25713;-35.352;149.036;2023-02-15T13:56:51;21.40;90.00
40023;DHT22;25713;-35.352;149.036;2023-02-15T13:59:42;21.30;89.90
40023;DHT22;25713;-35.352;149.036;2023-02-15T14:02:42;21.40;89.80
40023;DHT22;25713;-35.352;149.036;2023-02-15T14:05:27;21.30;89.80
40023;DHT22;25713;-35.352;149.036;2023-02-15T14:08:05;21.30;90.00
40023;DHT22;25713;-35.352;149.036;2023-02-15T14:10:46;21.30;89.90
40023;DHT22;25713;-35.352;149.036;2023-02-15T14:16:35;21.30;89.80
40023;DHT22;25713;-35.352;149.036;2023-02-15T14:19:13;21.30;89.80
40023;DHT22;25713;-35.352;149.036;2023-02-15T14:21:48;21.20;89.70
40023;DHT22;25713;-35.352;149.036;2023-02-15T14:24:29;21.30;89.90
40023;DHT22;25713;-35.352;149.036;2023-02-15T14:27:07;21.30;89.90
40023;DHT22;25713;-35.352;149.036;2023-02-15T14:29:48;21.20;89.80
40023;DHT22;25713;-35.352;149.036;2023-02-15T14:32:26;21.20;89.80
40023;DHT22;25713;-35.352;149.036;2023-02-15T14:34:58;21.20;89.60
40023;DHT22;25713;-35.352;149.036;2023-02-15T14:37:41;21.20;89.60
40023;DHT22;25713;-35.352;149.036;2023-02-15T14:40:19;21.20;89.80
40023;DHT22;25713;-35.352;149.036;2023-02-15T14:43:00;21.20;89.70
40023;DHT22;25713;-35.352;149.036;2023-02-15T14:45:34;21.20;89.90
40023;DHT22;25713;-35.352;149.036;2023-02-15T14:48:12;21.20;89.90
40023;DHT22;25713;-35.352;149.036;2023-02-15T16:02:54;20.70;90.80
40023;DHT22;25713;-35.352;149.036;2023-02-15T16:05:24;20.70;90.70
40023;DHT22;25713;-35.352;149.036;2023-02-15T16:07:53;20.70;90.50
40023;DHT22;25713;-35.352;149.036;2023-02-15T16:10:24;20.80;90.40
40023;DHT22;25713;-35.352;149.036;2023-02-15T16:12:54;20.80;90.40
40023;DHT22;25713;-35.352;149.036;2023-02-15T16:15:26;20.80;90.50
40023;DHT22;25713;-35.352;149.036;2023-02-15T16:18:01;20.80;90.40
40023;DHT22;25713;-35.352;149.036;2023-02-15T16:20:32;20.80;90.40
40023;DHT22;25713;-35.352;149.036;2023-02-15T16:23:15;20.80;90.30
40023;DHT22;25713;-35.352;149.036;2023-02-15T16:25:55;20.80;90.30
40023;DHT22;25713;-35.352;149.036;2023-02-15T16:28:30;20.80;90.20
40023;DHT22;25713;-35.352;149.036;2023-02-15T16:31:07;20.70;90.20
40023;DHT22;25713;-35.352;149.036;2023-02-15T16:33:41;20.70;90.30
40023;DHT22;25713;-35.352;149.036;2023-02-15T16:36:13;20.70;90.30
40023;DHT22;25713;-35.352;149.036;2023-02-15T16:39:17;20.70;90.40
40023;DHT22;25713;-35.352;149.036;2023-02-15T16:41:48;20.70;90.20
40023;DHT22;25713;-35.352;149.036;2023-02-15T16:44:19;20.70;90.40
40023;DHT22;25713;-35.352;149.036;2023-02-15T16:46:51;20.70;90.10
40023;DHT22;25713;-35.352;149.036;2023-02-15T16:49:26;20.70;90.20
40023;DHT22;25713;-35.352;149.036;2023-02-15T16:51:58;20.70;90.30
40023;DHT22;25713;-35.352;149.036;2023-02-15T16:54:29;20.70;90.30
40023;DHT22;25713;-35.352;149.036;2023-02-15T16:56:59;20.70;90.40
40023;DHT22;25713;-35.352;149.036;2023-02-15T16:59:33;20.70;90.30
40023;DHT22;25713;-35.352;149.036;2023-02-15T17:02:05;20.70;90.40
40023;DHT22;25713;-35.352;149.036;2023-02-15T17:04:42;20.70;90.50